Latest Weather Observations for Beaudesert AWS

IDQ60801

Issued at 10:32 am EST Friday 31 July 2015 (issued every 30 minutes, with the page automatically refreshed every 10 minutes)

About weather observations | Map of weather stations | Latest weather observations for QLD | Other Formats
Station Details ID: 040983 Name: BEAUDESERT DRUMLEY STREET Lat: -27.97 Lon: 152.99 Height: 47.81 m
Data from the previous 72 hours. | See also: Recent months at Beaudesert AWS
Date/Time
EST
Temp
°C
App
Temp
°C
Dew
Point
Rel
Hum
%
Delta-T
°C
Wind Press
QNH
hPa
Press
MSL
hPa
Rain
since 9 am
mm
Dir
 
Spd
km/h
Gust
km/h
Spd
kts
Gust
kts
31/10:00am 12.9 13.2 12.1 95 0.4 SSW 2 6 1 3 1024.3 1024.3 0.0
31/09:30am 11.2 11.4 10.6 96 0.3 CALM 0 4 0 2 1024.6 1024.6 0.0
31/09:00am 10.1 10.0 9.5 96 0.3 CALM 0 4 0 2 1024.7 1024.7 0.0
31/08:30am 9.0 8.6 8.4 96 0.3 CALM 0 2 0 1 1024.6 1024.6 0.0
31/08:00am 8.3 7.4 7.7 96 0.3 SW 2 4 1 2 1024.8 1024.8 0.0
31/07:30am 7.8 7.2 7.2 96 0.3 CALM 0 2 0 1 1024.2 1024.2 0.0
31/07:00am 7.7 7.0 7.1 96 0.3 CALM 0 0 0 0 1024.0 1024.0 0.0
31/06:30am 7.6 6.9 7.0 96 0.3 CALM 0 0 0 0 1023.5 1023.5 0.0
31/06:00am 7.3 6.5 6.7 96 0.3 CALM 0 0 0 0 1023.3 1023.3 0.0
31/05:30am 7.0 5.4 6.4 96 0.3 E 4 6 2 3 1022.7 1022.8 0.0
31/05:00am 6.9 5.7 6.3 96 0.3 SSE 2 6 1 3 1022.7 1022.8 0.0
31/04:30am 6.5 5.6 5.9 96 0.3 CALM 0 0 0 0 1022.4 1022.5 0.0
31/04:00am 6.7 5.4 6.1 96 0.3 SW 2 6 1 3 1022.7 1022.8 0.0
31/03:30am 7.7 7.0 7.1 96 0.3 CALM 0 0 0 0 1023.3 1023.3 0.0
31/03:00am 6.7 5.8 6.0 95 0.3 CALM 0 0 0 0 1023.7 1023.7 0.0
31/02:30am 6.7 5.8 6.0 95 0.3 CALM 0 0 0 0 1023.5 1023.5 0.0
31/02:00am 8.5 7.3 7.9 96 0.3 ENE 4 6 2 3 1023.7 1023.7 0.0
31/01:30am 8.1 6.7 7.3 95 0.4 ESE 4 4 2 2 1024.0 1024.0 0.0
31/01:00am 7.4 6.6 6.3 93 0.5 CALM 0 0 0 0 1023.8 1023.8 0.0
31/12:30am 10.2 9.4 9.6 96 0.3 ESE 4 4 2 2 1024.0 1024.0 0.0
31/12:00am 9.6 8.6 9.0 96 0.3 ESE 4 4 2 2 1024.4 1024.4 0.0
 
Date/Time
EST
Temp
°C
App
Temp
°C
Dew
Point
Rel
Hum
%
Delta-T
°C
Wind Press
QNH
hPa
Press
MSL
hPa
Rain
since 9 am
mm
Dir
 
Spd
km/h
Gust
km/h
Spd
kts
Gust
kts
30/11:30pm 8.3 7.7 7.4 94 0.4 CALM 0 0 0 0 1024.7 1024.7 0.0
30/11:00pm 7.5 6.6 6.0 90 0.7 CALM 0 0 0 0 1024.6 1024.6 0.0
30/10:30pm 9.0 8.2 8.1 94 0.4 E 2 4 1 2 1025.0 1025.0 0.0
30/10:00pm 9.8 9.5 8.7 93 0.5 CALM 0 0 0 0 1024.9 1024.9 0.0
30/09:30pm 9.7 9.3 8.1 90 0.8 CALM 0 0 0 0 1025.0 1025.0 0.0
30/09:00pm 10.3 10.1 8.9 91 0.7 CALM 0 0 0 0 1024.9 1024.9 0.0
30/08:30pm 10.9 10.6 8.8 87 1.0 CALM 0 0 0 0 1024.8 1024.8 0.0
30/08:00pm 11.9 11.8 9.6 86 1.2 CALM 0 0 0 0 1024.9 1024.9 0.0
30/07:30pm 13.5 13.7 10.7 83 1.5 CALM 0 0 0 0 1024.8 1024.8 0.0
30/07:00pm 15.7 15.9 11.9 78 2.1 ENE 2 6 1 3 1024.5 1024.5 0.0
30/06:30pm 16.3 15.6 12.1 76 2.3 NE 7 15 4 8 1024.5 1024.5 0.0
30/06:00pm 17.0 16.3 11.9 72 2.8 NE 7 13 4 7 1024.3 1024.3 0.0
30/05:30pm 17.4 16.6 11.7 69 3.1 ENE 7 11 4 6 1024.2 1024.2 0.0
30/05:00pm 18.9 17.7 11.7 63 4.0 ENE 9 15 5 8 1023.9 1023.9 0.0
30/04:30pm 20.4 19.5 10.8 54 5.2 NNE 6 13 3 7 1023.5 1023.5 0.0
30/04:00pm 21.7 20.1 8.6 43 6.9 NW 7 15 4 8 1023.3 1023.3 0.0
30/03:30pm 22.0 20.3 8.5 42 7.1 NW 7 15 4 8 1023.4 1023.4 0.0
30/03:00pm 22.4 20.7 8.5 41 7.3 NNW 7 15 4 8 1023.7 1023.7 0.0
30/02:30pm 22.3 20.5 8.1 40 7.5 NNW 7 19 4 10 1024.0 1024.0 0.0
30/02:00pm 21.5 20.1 8.7 44 6.7 NW 6 7 3 4 1024.5 1024.5 0.0
30/01:30pm 21.9 20.4 9.1 44 6.8 NNE 7 13 4 7 1024.8 1024.8 0.0
30/01:00pm 20.8 19.8 8.8 46 6.3 NNW 4 9 2 5 1025.2 1025.2 0.0
30/12:30pm 21.2 19.3 9.1 46 6.4 N 9 15 5 8 1025.6 1025.6 0.0
30/12:00pm 20.7 19.9 9.6 49 5.9 WSW 4 9 2 5 1026.2 1026.2 0.0
30/11:30am 20.0 19.3 9.9 52 5.4 WNW 4 7 2 4 1027.0 1027.0 0.0
30/11:00am 19.6 18.9 10.0 54 5.1 NW 4 9 2 5 1027.6 1027.6 0.0
30/10:30am 18.7 17.8 10.5 59 4.4 WSW 6 11 3 6 1027.9 1027.9 0.0
30/10:00am 17.9 15.9 10.3 61 4.0 WSW 11 15 6 8 1028.3 1028.3 0.0
30/09:30am 16.8 14.8 10.2 65 3.5 SW 11 15 6 8 1028.5 1028.5 0.0
30/09:00am 15.9 15.6 10.2 69 3.0 WNW 2 4 1 2 1028.6 1028.6 0.0
30/08:30am 13.4 13.3 9.5 77 2.0 CALM 0 2 0 1 1028.4 1028.4 0.0
30/08:00am 9.9 8.6 7.5 85 1.1 SSW 4 6 2 3 1028.1 1028.1 0.0
30/07:30am 8.5 7.1 7.1 91 0.7 SSE 4 7 2 4 1028.2 1028.2 0.0
30/07:00am 6.1 4.9 4.7 91 0.6 CALM 0 0 0 0 1028.0 1028.0 0.0
30/06:30am 6.8 5.7 5.1 89 0.7 CALM 0 0 0 0 1027.7 1027.7 0.0
30/06:00am 7.3 6.2 5.1 86 1.0 CALM 0 2 0 1 1027.7 1027.7 0.0
30/05:30am 8.4 7.1 5.9 84 1.1 SE 2 4 1 2 1027.4 1027.4 0.0
30/05:00am 8.7 7.2 6.7 87 0.9 E 4 4 2 2 1027.4 1027.4 0.0
30/04:30am 7.3 5.9 5.6 89 0.8 S 2 4 1 2 1027.7 1027.7 0.0
30/04:00am 7.1 6.0 5.1 87 0.9 CALM 0 0 0 0 1027.7 1027.7 0.0
30/03:30am 8.3 7.0 5.8 84 1.1 ENE 2 4 1 2 1027.6 1027.6 0.0
30/03:00am 8.4 7.5 6.0 85 1.1 CALM 0 0 0 0 1028.1 1028.1 0.0
30/02:30am 8.6 7.6 5.5 81 1.4 CALM 0 0 0 0 1028.4 1028.4 0.0
30/02:00am 8.7 6.9 5.4 80 1.5 SE 4 4 2 2 1028.5 1028.5 0.0
30/01:30am 9.5 8.2 6.2 80 1.5 S 2 4 1 2 1028.6 1028.6 0.0
30/01:00am 9.7 8.9 6.4 80 1.5 CALM 0 2 0 1 1028.9 1028.9 0.0
30/12:30am 9.0 8.1 6.1 82 1.3 CALM 0 0 0 0 1029.1 1029.1 0.0
30/12:00am 10.2 9.3 6.0 75 1.9 CALM 0 0 0 0 1029.1 1029.1 0.0
 
Date/Time
EST
Temp
°C
App
Temp
°C
Dew
Point
Rel
Hum
%
Delta-T
°C
Wind Press
QNH
hPa
Press
MSL
hPa
Rain
since 9 am
mm
Dir
 
Spd
km/h
Gust
km/h
Spd
kts
Gust
kts
29/11:30pm 10.4 9.6 6.4 76 1.9 CALM 0 0 0 0 1029.8 1029.8 0.0
29/11:00pm 9.9 9.1 6.4 79 1.6 CALM 0 0 0 0 1030.1 1030.1 0.0
29/10:30pm 9.7 9.0 6.8 82 1.4 CALM 0 0 0 0 1029.9 1029.9 0.0
29/10:00pm 8.6 7.5 5.0 78 1.6 CALM 0 0 0 0 1029.9 1029.9 0.0
29/09:30pm 7.9 6.6 4.1 77 1.7 CALM 0 4 0 2 1029.8 1029.8 0.0
29/09:00pm 10.1 8.3 5.5 73 2.1 E 4 6 2 3 1029.7 1029.7 0.0
29/08:30pm 10.1 8.5 4.7 69 2.4 ESE 2 4 1 2 1029.7 1029.7 0.0
29/08:00pm 11.1 9.2 5.0 66 2.8 SSE 4 6 2 3 1029.9 1029.9 0.0
29/07:30pm 11.2 9.8 5.5 68 2.6 SSE 2 4 1 2 1029.8 1029.8 0.0
29/07:00pm 10.5 9.1 3.8 63 2.9 CALM 0 0 0 0 1029.5 1029.5 0.0
29/06:30pm 12.3 10.6 4.0 57 3.7 S 2 2 1 1 1029.2 1029.2 0.0
29/06:00pm 13.8 12.0 3.3 49 4.7 SSW 2 4 1 2 1028.9 1028.9 0.0
29/05:30pm 15.3 12.8 1.8 40 6.0 ESE 4 6 2 3 1028.5 1028.5 0.0
29/05:00pm 18.2 15.3 1.7 33 7.4 WSW 6 6 3 3 1028.3 1028.3 0.0
29/04:30pm 19.4 16.4 0.9 29 8.3 W 6 7 3 4 1027.9 1027.9 0.0
29/04:00pm 20.1 17.1 1.0 28 8.6 WSW 6 11 3 6 1027.9 1027.9 0.0
29/03:30pm 20.1 16.8 0.0 26 8.9 WSW 7 11 4 6 1027.9 1027.9 0.0
29/03:00pm 20.2 16.6 0.6 27 8.7 SW 9 17 5 9 1027.9 1027.9 0.0
29/02:30pm 20.5 16.9 0.9 27 8.9 W 9 15 5 8 1028.2 1028.2 0.0
29/02:00pm 20.6 17.1 1.0 27 8.8 W 9 17 5 9 1028.4 1028.4 0.0
29/01:30pm 20.1 16.6 1.0 28 8.6 WSW 9 15 5 8 1028.6 1028.6 0.0
29/01:00pm 20.3 16.1 1.7 29 8.5 SW 13 20 7 11 1029.1 1029.1 0.0
29/12:30pm 19.6 15.5 2.0 31 8.1 WSW 13 20 7 11 1029.7 1029.7 0.0
29/12:00pm 19.2 15.8 1.7 31 7.9 SW 9 17 5 9 1030.0 1030.0 0.0
29/11:30am 19.5 15.9 2.8 33 7.8 SW 11 20 6 11 1030.7 1030.7 0.0
29/11:00am 18.8 14.7 2.2 33 7.5 SW 13 20 7 11 1031.3 1031.3 0.0
29/10:30am 18.1 14.2 3.6 38 6.8 SW 13 20 7 11 1031.8 1031.8 0.0
29/10:00am 16.9 13.0 3.2 40 6.2 SW 13 22 7 12 1032.2 1032.2 0.0
29/09:30am 15.5 11.6 3.6 45 5.5 SW 13 20 7 11 1032.6 1032.6 0.0
29/09:00am 13.7 10.3 3.8 51 4.5 SSW 11 17 6 9 1032.7 1032.7 -
29/08:30am 11.4 10.0 5.3 66 2.8 SW 2 4 1 2 1032.4 1032.4 -
29/08:00am 9.8 7.8 4.2 68 2.5 SSE 4 6 2 3 1032.3 1032.3 -
29/07:30am 7.2 5.0 3.6 78 1.5 ESE 4 6 2 3 1032.2 1032.2 -
29/07:00am 3.6 1.8 1.0 83 1.0 CALM 0 0 0 0 1032.3 1032.3 -
29/06:30am 4.8 2.4 2.2 83 1.0 SE 4 6 2 3 1031.8 1031.8 -
29/06:00am 4.2 1.8 2.1 86 0.8 SE 4 6 2 3 1031.5 1031.5 -
29/05:30am 3.0 1.2 1.5 90 0.6 CALM 0 0 0 0 1031.1 1031.1 -
29/05:00am 2.5 0.3 1.0 90 0.6 ESE 2 4 1 2 1030.8 1030.8 -
29/04:30am 3.1 1.4 1.8 91 0.5 CALM 0 2 0 1 1030.6 1030.6 -
29/04:00am 2.4 0.5 0.5 87 0.7 CALM 0 0 0 0 1030.8 1030.8 -
29/03:30am 3.2 1.4 1.3 87 0.7 CALM 0 2 0 1 1030.8 1030.8 -
29/03:00am 3.9 2.3 2.6 91 0.5 CALM 0 0 0 0 1031.0 1031.0 0.0
29/02:30am 2.6 0.8 1.3 91 0.5 CALM 0 0 0 0 1031.1 1031.1 -
29/02:00am 2.8 1.0 1.2 89 0.6 CALM 0 0 0 0 1031.1 1031.1 -
29/01:30am 2.8 1.0 1.0 88 0.7 CALM 0 0 0 0 1031.2 1031.2 -
29/01:00am 4.5 2.9 2.2 85 0.9 CALM 0 0 0 0 1031.3 1031.3 -
29/12:30am 4.2 2.3 2.6 89 0.6 SE 2 2 1 1 1031.4 1031.4 -
29/12:00am 3.7 1.9 1.3 84 0.9 CALM 0 0 0 0 1031.2 1031.2 -
 
Date/Time
EST
Temp
°C
App
Temp
°C
Dew
Point
Rel
Hum
%
Delta-T
°C
Wind Press
QNH
hPa
Press
MSL
hPa
Rain
since 9 am
mm
Dir
 
Spd
km/h
Gust
km/h
Spd
kts
Gust
kts
28/11:30pm 4.2 2.1 1.7 84 1.0 SSE 2 7 1 4 1031.4 1031.4 -
28/11:00pm 5.4 3.5 2.6 82 1.1 ESE 2 4 1 2 1031.5 1031.5 -
28/10:30pm 5.7 3.5 3.4 85 1.0 ESE 4 4 2 2 1031.5 1031.5 -
28/10:00pm 4.5 2.8 1.7 82 1.1 CALM 0 0 0 0 1031.4 1031.4 -
28/09:30pm 5.4 3.8 2.2 80 1.3 CALM 0 0 0 0 1031.3 1031.3 -
28/09:00pm 8.2 6.5 4.0 75 1.8 ENE 2 6 1 3 1031.2 1031.2 -
28/08:30pm 7.6 6.2 3.6 76 1.7 CALM 0 0 0 0 1031.1 1031.1 -
28/08:00pm 8.3 6.9 3.8 73 1.9 CALM 0 2 0 1 1030.8 1030.8 -
28/07:30pm 9.1 7.4 3.9 70 2.3 NE 2 4 1 2 1030.6 1030.6 -
28/07:00pm 11.2 9.4 3.5 59 3.4 E 2 4 1 2 1030.2 1030.2 -
28/06:30pm 11.9 10.0 2.9 54 3.9 ESE 2 6 1 3 1029.7 1029.7 -
28/06:00pm 12.9 9.9 2.2 48 4.6 SW 7 9 4 5 1029.2 1029.2 -
28/05:30pm 14.6 11.6 2.2 43 5.5 SSW 7 11 4 6 1028.9 1028.9 -
28/05:00pm 16.2 13.1 1.5 37 6.4 SSW 7 15 4 8 1028.7 1028.7 -
28/04:30pm 17.4 12.9 -0.3 30 7.6 SSW 13 19 7 10 1028.5 1028.5 -
28/04:00pm 18.4 14.1 1.0 31 7.7 SSW 13 19 7 10 1028.3 1028.3 -
28/03:30pm 19.2 15.2 2.6 33 7.7 SW 13 19 7 10 1028.1 1028.1 -
28/01:30pm 19.7 15.7 3.0 33 7.8 SSW 13 19 7 10 1028.2 1028.2 0.0
28/01:00pm 19.0 15.1 3.2 35 7.3 SW 13 20 7 11 1028.7 1028.7 0.0
28/12:30pm 19.2 14.3 4.2 37 7.2 WSW 19 24 10 13 1029.0 1029.0 0.0
28/12:00pm 18.5 13.9 3.6 37 7.0 SW 17 22 9 12 1029.3 1029.3 0.0
28/11:30am 18.0 13.1 3.9 39 6.6 WSW 19 24 10 13 1029.8 1029.8 0.0
28/11:00am 17.8 13.4 2.9 37 6.8 SW 15 22 8 12 1030.2 1030.2 0.0

Other Formats:

Comma delimited format used in spreadsheet applications
http://www.bom.gov.au/fwo/IDQ60801/IDQ60801.95575.axf

JavaScript Object Notation format (JSON) in row-major order
http://www.bom.gov.au/fwo/IDQ60801/IDQ60801.95575.json